sensor_id;sensor_type;location;lat;lon;timestamp;temperature;humidity
14236;DHT22;7202;50.718;7.072;2022-10-16T00:01:44;14.00;99.90
14236;DHT22;7202;50.718;7.072;2022-10-16T00:04:13;14.00;99.90
14236;DHT22;7202;50.718;7.072;2022-10-16T00:06:42;14.00;99.90
14236;DHT22;7202;50.718;7.072;2022-10-16T00:09:11;14.00;99.90
14236;DHT22;7202;50.718;7.072;2022-10-16T00:11:40;14.00;99.90
14236;DHT22;7202;50.718;7.072;2022-10-16T00:14:11;14.00;99.90
14236;DHT22;7202;50.718;7.072;2022-10-16T00:16:42;14.00;99.90
14236;DHT22;7202;50.718;7.072;2022-10-16T00:19:11;14.00;99.90
14236;DHT22;7202;50.718;7.072;2022-10-16T00:21:40;14.00;99.90
14236;DHT22;7202;50.718;7.072;2022-10-16T00:24:10;13.90;99.90
14236;DHT22;7202;50.718;7.072;2022-10-16T00:26:39;14.00;99.90
14236;DHT22;7202;50.718;7.072;2022-10-16T00:29:08;13.90;99.90
14236;DHT22;7202;50.718;7.072;2022-10-16T00:31:37;13.90;99.90
14236;DHT22;7202;50.718;7.072;2022-10-16T00:34:07;13.90;99.90
14236;DHT22;7202;50.718;7.072;2022-10-16T00:36:36;13.90;99.90
14236;DHT22;7202;50.718;7.072;2022-10-16T00:39:04;13.90;99.90
14236;DHT22;7202;50.718;7.072;2022-10-16T00:41:33;13.90;99.90
14236;DHT22;7202;50.718;7.072;2022-10-16T00:44:03;13.90;99.90
14236;DHT22;7202;50.718;7.072;2022-10-16T00:46:37;13.80;99.90
14236;DHT22;7202;50.718;7.072;2022-10-16T00:49:09;13.80;99.90
14236;DHT22;7202;50.718;7.072;2022-10-16T00:51:41;13.80;99.90
14236;DHT22;7202;50.718;7.072;2022-10-16T00:54:13;13.80;99.90
14236;DHT22;7202;50.718;7.072;2022-10-16T00:56:43;13.80;99.90
14236;DHT22;7202;50.718;7.072;2022-10-16T00:59:16;13.80;99.90
14236;DHT22;7202;50.718;7.072;2022-10-16T01:01:45;13.80;99.90
14236;DHT22;7202;50.718;7.072;2022-10-16T01:04:15;13.80;99.90
14236;DHT22;7202;50.718;7.072;2022-10-16T01:06:51;13.80;99.90
14236;DHT22;7202;50.718;7.072;2022-10-16T01:09:25;13.70;99.90
14236;DHT22;7202;50.718;7.072;2022-10-16T01:12:04;13.70;99.90
14236;DHT22;7202;50.718;7.072;2022-10-16T01:14:40;13.70;99.90
14236;DHT22;7202;50.718;7.072;2022-10-16T01:17:12;13.70;99.90
14236;DHT22;7202;50.718;7.072;2022-10-16T01:19:55;13.70;99.90
14236;DHT22;7202;50.718;7.072;2022-10-16T01:22:37;13.70;99.90
14236;DHT22;7202;50.718;7.072;2022-10-16T01:25:12;13.60;99.90
14236;DHT22;7202;50.718;7.072;2022-10-16T01:27:47;13.60;99.90
14236;DHT22;7202;50.718;7.072;2022-10-16T01:30:20;13.60;99.90
14236;DHT22;7202;50.718;7.072;2022-10-16T01:32:52;13.60;99.90
14236;DHT22;7202;50.718;7.072;2022-10-16T01:35:27;13.50;99.90
14236;DHT22;7202;50.718;7.072;2022-10-16T01:38:00;13.50;99.90
14236;DHT22;7202;50.718;7.072;2022-10-16T01:40:33;13.50;99.90
14236;DHT22;7202;50.718;7.072;2022-10-16T01:43:06;13.50;99.90
14236;DHT22;7202;50.718;7.072;2022-10-16T01:45:36;13.50;99.90
14236;DHT22;7202;50.718;7.072;2022-10-16T01:48:06;13.50;99.90
14236;DHT22;7202;50.718;7.072;2022-10-16T01:50:38;13.50;99.90
14236;DHT22;7202;50.718;7.072;2022-10-16T01:53:11;13.50;99.90
14236;DHT22;7202;50.718;7.072;2022-10-16T01:55:46;13.40;99.90
14236;DHT22;7202;50.718;7.072;2022-10-16T01:58:17;13.50;99.90
14236;DHT22;7202;50.718;7.072;2022-10-16T02:00:46;13.40;99.90
14236;DHT22;7202;50.718;7.072;2022-10-16T02:03:18;13.40;99.90
14236;DHT22;7202;50.718;7.072;2022-10-16T02:05:51;13.40;99.90
14236;DHT22;7202;50.718;7.072;2022-10-16T02:08:23;13.40;99.90
14236;DHT22;7202;50.718;7.072;2022-10-16T02:10:54;13.40;99.90
14236;DHT22;7202;50.718;7.072;2022-10-16T02:13:29;13.40;99.90
14236;DHT22;7202;50.718;7.072;2022-10-16T02:15:59;13.40;99.90
14236;DHT22;7202;50.718;7.072;2022-10-16T02:18:28;13.50;99.90
14236;DHT22;7202;50.718;7.072;2022-10-16T02:21:00;13.50;99.90
14236;DHT22;7202;50.718;7.072;2022-10-16T02:23:36;13.50;99.90
14236;DHT22;7202;50.718;7.072;2022-10-16T02:26:08;13.50;99.90
14236;DHT22;7202;50.718;7.072;2022-10-16T02:28:46;13.50;99.90
14236;DHT22;7202;50.718;7.072;2022-10-16T02:31:26;13.60;99.90
14236;DHT22;7202;50.718;7.072;2022-10-16T02:33:58;13.60;99.90
14236;DHT22;7202;50.718;7.072;2022-10-16T02:36:27;13.60;99.90
14236;DHT22;7202;50.718;7.072;2022-10-16T02:38:56;13.60;99.90
14236;DHT22;7202;50.718;7.072;2022-10-16T02:41:26;13.70;99.90
14236;DHT22;7202;50.718;7.072;2022-10-16T02:43:56;13.70;99.90
14236;DHT22;7202;50.718;7.072;2022-10-16T02:46:25;13.70;99.90
14236;DHT22;7202;50.718;7.072;2022-10-16T02:48:53;13.70;99.90
14236;DHT22;7202;50.718;7.072;2022-10-16T02:51:22;13.70;99.90
14236;DHT22;7202;50.718;7.072;2022-10-16T02:53:50;13.70;99.90
14236;DHT22;7202;50.718;7.072;2022-10-16T02:56:19;13.70;99.90
14236;DHT22;7202;50.718;7.072;2022-10-16T02:58:47;13.70;99.90
14236;DHT22;7202;50.718;7.072;2022-10-16T03:01:17;13.80;99.90
14236;DHT22;7202;50.718;7.072;2022-10-16T03:03:46;13.80;99.90
14236;DHT22;7202;50.718;7.072;2022-10-16T03:06:15;13.80;99.90
14236;DHT22;7202;50.718;7.072;2022-10-16T03:08:43;13.80;99.90
14236;DHT22;7202;50.718;7.072;2022-10-16T03:11:12;13.80;99.90
14236;DHT22;7202;50.718;7.072;2022-10-16T03:13:40;13.80;99.90
14236;DHT22;7202;50.718;7.072;2022-10-16T03:16:09;13.80;99.90
14236;DHT22;7202;50.718;7.072;2022-10-16T03:18:39;13.80;99.90
14236;DHT22;7202;50.718;7.072;2022-10-16T03:21:07;13.80;99.90
14236;DHT22;7202;50.718;7.072;2022-10-16T03:23:36;13.80;99.90
14236;DHT22;7202;50.718;7.072;2022-10-16T03:26:04;13.90;99.90
14236;DHT22;7202;50.718;7.072;2022-10-16T03:28:33;13.90;99.90
14236;DHT22;7202;50.718;7.072;2022-10-16T03:31:01;13.90;99.90
14236;DHT22;7202;50.718;7.072;2022-10-16T03:33:30;13.90;99.90
14236;DHT22;7202;50.718;7.072;2022-10-16T03:36:00;14.00;99.90
14236;DHT22;7202;50.718;7.072;2022-10-16T03:38:28;14.00;99.90
14236;DHT22;7202;50.718;7.072;2022-10-16T03:40:57;14.00;99.90
14236;DHT22;7202;50.718;7.072;2022-10-16T03:43:25;14.00;99.90
14236;DHT22;7202;50.718;7.072;2022-10-16T03:45:54;14.10;99.90
14236;DHT22;7202;50.718;7.072;2022-10-16T03:48:23;14.10;99.90
14236;DHT22;7202;50.718;7.072;2022-10-16T03:50:51;14.10;99.90
14236;DHT22;7202;50.718;7.072;2022-10-16T03:53:21;14.10;99.90
14236;DHT22;7202;50.718;7.072;2022-10-16T03:55:50;14.20;99.90
14236;DHT22;7202;50.718;7.072;2022-10-16T03:58:18;14.20;99.90
14236;DHT22;7202;50.718;7.072;2022-10-16T04:00:47;14.10;99.90
14236;DHT22;7202;50.718;7.072;2022-10-16T04:03:16;14.10;99.90
14236;DHT22;7202;50.718;7.072;2022-10-16T04:05:46;14.10;99.90
14236;DHT22;7202;50.718;7.072;2022-10-16T04:08:15;14.10;99.90
14236;DHT22;7202;50.718;7.072;2022-10-16T04:10:45;14.10;99.90
14236;DHT22;7202;50.718;7.072;2022-10-16T04:13:13;14.10;99.90
14236;DHT22;7202;50.718;7.072;2022-10-16T04:15:42;14.10;99.90
14236;DHT22;7202;50.718;7.072;2022-10-16T04:18:12;14.10;99.90
14236;DHT22;7202;50.718;7.072;2022-10-16T04:20:41;14.10;99.90
14236;DHT22;7202;50.718;7.072;2022-10-16T04:23:10;14.10;99.90
14236;DHT22;7202;50.718;7.072;2022-10-16T04:25:38;14.10;99.90
14236;DHT22;7202;50.718;7.072;2022-10-16T04:28:08;14.10;99.90
14236;DHT22;7202;50.718;7.072;2022-10-16T04:30:38;14.10;99.90
14236;DHT22;7202;50.718;7.072;2022-10-16T04:33:08;14.00;99.90
14236;DHT22;7202;50.718;7.072;2022-10-16T04:35:37;14.00;99.90
14236;DHT22;7202;50.718;7.072;2022-10-16T04:38:06;14.00;99.90
14236;DHT22;7202;50.718;7.072;2022-10-16T04:40:34;14.00;99.90
14236;DHT22;7202;50.718;7.072;2022-10-16T04:43:03;14.00;99.90
14236;DHT22;7202;50.718;7.072;2022-10-16T04:45:34;14.00;99.90
14236;DHT22;7202;50.718;7.072;2022-10-16T04:48:02;14.00;99.90
14236;DHT22;7202;50.718;7.072;2022-10-16T04:50:31;14.00;99.90
14236;DHT22;7202;50.718;7.072;2022-10-16T04:53:05;14.00;99.90
14236;DHT22;7202;50.718;7.072;2022-10-16T04:55:34;14.00;99.90
14236;DHT22;7202;50.718;7.072;2022-10-16T04:58:03;14.00;99.90
14236;DHT22;7202;50.718;7.072;2022-10-16T05:00:33;14.00;99.90
14236;DHT22;7202;50.718;7.072;2022-10-16T05:03:02;13.90;99.90
14236;DHT22;7202;50.718;7.072;2022-10-16T05:05:35;14.00;99.90
14236;DHT22;7202;50.718;7.072;2022-10-16T05:08:04;14.00;99.90
14236;DHT22;7202;50.718;7.072;2022-10-16T05:10:32;13.90;99.90
14236;DHT22;7202;50.718;7.072;2022-10-16T05:13:01;13.90;99.90
14236;DHT22;7202;50.718;7.072;2022-10-16T05:15:29;13.90;99.90
14236;DHT22;7202;50.718;7.072;2022-10-16T05:17:59;13.90;99.90
14236;DHT22;7202;50.718;7.072;2022-10-16T05:20:28;13.90;99.90
14236;DHT22;7202;50.718;7.072;2022-10-16T05:22:57;13.80;99.90
14236;DHT22;7202;50.718;7.072;2022-10-16T05:25:25;13.80;99.90
14236;DHT22;7202;50.718;7.072;2022-10-16T05:27:54;13.80;99.90
14236;DHT22;7202;50.718;7.072;2022-10-16T05:30:22;13.80;99.90
14236;DHT22;7202;50.718;7.072;2022-10-16T05:32:51;13.80;99.90
14236;DHT22;7202;50.718;7.072;2022-10-16T05:35:21;13.80;99.90
14236;DHT22;7202;50.718;7.072;2022-10-16T05:37:50;13.80;99.90
14236;DHT22;7202;50.718;7.072;2022-10-16T05:40:18;13.80;99.90
14236;DHT22;7202;50.718;7.072;2022-10-16T05:42:47;13.80;99.90
14236;DHT22;7202;50.718;7.072;2022-10-16T05:45:15;13.70;99.90
14236;DHT22;7202;50.718;7.072;2022-10-16T05:47:44;13.70;99.90
14236;DHT22;7202;50.718;7.072;2022-10-16T05:50:13;13.70;99.90
14236;DHT22;7202;50.718;7.072;2022-10-16T05:52:43;13.80;99.90
14236;DHT22;7202;50.718;7.072;2022-10-16T05:55:11;13.80;99.90
14236;DHT22;7202;50.718;7.072;2022-10-16T05:57:40;13.80;99.90
14236;DHT22;7202;50.718;7.072;2022-10-16T06:00:09;13.80;99.90
14236;DHT22;7202;50.718;7.072;2022-10-16T06:02:41;13.80;99.90
14236;DHT22;7202;50.718;7.072;2022-10-16T06:05:10;13.80;99.90
14236;DHT22;7202;50.718;7.072;2022-10-16T06:07:38;13.80;99.90
14236;DHT22;7202;50.718;7.072;2022-10-16T06:10:09;13.80;99.90
14236;DHT22;7202;50.718;7.072;2022-10-16T06:12:37;13.70;99.90
14236;DHT22;7202;50.718;7.072;2022-10-16T06:15:06;13.70;99.90
14236;DHT22;7202;50.718;7.072;2022-10-16T06:17:35;13.70;99.90
14236;DHT22;7202;50.718;7.072;2022-10-16T06:20:04;13.70;99.90
14236;DHT22;7202;50.718;7.072;2022-10-16T06:22:33;13.70;99.90
14236;DHT22;7202;50.718;7.072;2022-10-16T06:25:02;13.70;99.90
14236;DHT22;7202;50.718;7.072;2022-10-16T06:27:32;13.70;99.90
14236;DHT22;7202;50.718;7.072;2022-10-16T06:30:00;13.70;99.90
14236;DHT22;7202;50.718;7.072;2022-10-16T06:32:30;13.70;99.90
14236;DHT22;7202;50.718;7.072;2022-10-16T06:34:59;13.70;99.90
14236;DHT22;7202;50.718;7.072;2022-10-16T06:37:28;13.70;99.90
14236;DHT22;7202;50.718;7.072;2022-10-16T06:39:56;13.70;99.90
14236;DHT22;7202;50.718;7.072;2022-10-16T06:42:24;13.70;99.90
14236;DHT22;7202;50.718;7.072;2022-10-16T06:44:55;13.70;99.90
14236;DHT22;7202;50.718;7.072;2022-10-16T06:47:23;13.70;99.90
14236;DHT22;7202;50.718;7.072;2022-10-16T06:49:52;13.70;99.90
14236;DHT22;7202;50.718;7.072;2022-10-16T06:52:20;13.70;99.90
14236;DHT22;7202;50.718;7.072;2022-10-16T06:54:49;13.70;99.90
14236;DHT22;7202;50.718;7.072;2022-10-16T06:57:18;13.70;99.90
14236;DHT22;7202;50.718;7.072;2022-10-16T06:59:46;13.80;99.90
14236;DHT22;7202;50.718;7.072;2022-10-16T07:02:22;13.80;99.90
14236;DHT22;7202;50.718;7.072;2022-10-16T07:04:52;13.80;99.90
14236;DHT22;7202;50.718;7.072;2022-10-16T07:07:20;13.80;99.90
14236;DHT22;7202;50.718;7.072;2022-10-16T07:09:51;13.90;99.90
14236;DHT22;7202;50.718;7.072;2022-10-16T07:12:20;13.90;99.90
14236;DHT22;7202;50.718;7.072;2022-10-16T07:14:49;13.90;99.90
14236;DHT22;7202;50.718;7.072;2022-10-16T07:17:19;13.90;99.90
14236;DHT22;7202;50.718;7.072;2022-10-16T07:19:49;13.90;99.90
14236;DHT22;7202;50.718;7.072;2022-10-16T07:22:20;13.90;99.90
14236;DHT22;7202;50.718;7.072;2022-10-16T07:24:48;14.00;99.90
14236;DHT22;7202;50.718;7.072;2022-10-16T07:27:19;14.00;99.90
14236;DHT22;7202;50.718;7.072;2022-10-16T07:29:49;14.10;99.90
14236;DHT22;7202;50.718;7.072;2022-10-16T07:32:18;14.10;99.90
14236;DHT22;7202;50.718;7.072;2022-10-16T07:34:46;14.10;99.90
14236;DHT22;7202;50.718;7.072;2022-10-16T07:37:16;14.10;99.90
14236;DHT22;7202;50.718;7.072;2022-10-16T07:39:45;14.20;99.90
14236;DHT22;7202;50.718;7.072;2022-10-16T07:42:13;14.20;99.90
14236;DHT22;7202;50.718;7.072;2022-10-16T07:44:42;14.20;99.90
14236;DHT22;7202;50.718;7.072;2022-10-16T07:47:10;14.20;99.90
14236;DHT22;7202;50.718;7.072;2022-10-16T07:49:39;14.30;99.90
14236;DHT22;7202;50.718;7.072;2022-10-16T07:52:07;14.30;99.90
14236;DHT22;7202;50.718;7.072;2022-10-16T07:54:37;14.30;99.90
14236;DHT22;7202;50.718;7.072;2022-10-16T07:57:06;14.30;99.90
14236;DHT22;7202;50.718;7.072;2022-10-16T07:59:34;14.30;99.90
14236;DHT22;7202;50.718;7.072;2022-10-16T08:02:03;14.40;99.90
14236;DHT22;7202;50.718;7.072;2022-10-16T08:04:32;14.40;99.90
14236;DHT22;7202;50.718;7.072;2022-10-16T08:07:00;14.50;99.90
14236;DHT22;7202;50.718;7.072;2022-10-16T08:09:29;14.50;99.90
14236;DHT22;7202;50.718;7.072;2022-10-16T08:11:59;14.50;99.90
14236;DHT22;7202;50.718;7.072;2022-10-16T08:14:29;14.50;99.90
14236;DHT22;7202;50.718;7.072;2022-10-16T08:16:57;14.60;99.90
14236;DHT22;7202;50.718;7.072;2022-10-16T08:19:26;14.60;99.90
14236;DHT22;7202;50.718;7.072;2022-10-16T08:21:55;14.60;99.90
14236;DHT22;7202;50.718;7.072;2022-10-16T08:24:23;14.60;99.90
14236;DHT22;7202;50.718;7.072;2022-10-16T08:26:53;14.60;99.90
14236;DHT22;7202;50.718;7.072;2022-10-16T08:29:23;14.60;99.90
14236;DHT22;7202;50.718;7.072;2022-10-16T08:31:52;14.70;99.90
14236;DHT22;7202;50.718;7.072;2022-10-16T08:34:20;14.70;99.90
14236;DHT22;7202;50.718;7.072;2022-10-16T08:36:49;14.70;99.90
14236;DHT22;7202;50.718;7.072;2022-10-16T08:39:18;14.80;99.90
14236;DHT22;7202;50.718;7.072;2022-10-16T08:42:08;14.80;99.90
14236;DHT22;7202;50.718;7.072;2022-10-16T08:47:48;14.90;99.90
14236;DHT22;7202;50.718;7.072;2022-10-16T08:50:22;15.00;99.90
14236;DHT22;7202;50.718;7.072;2022-10-16T08:52:52;15.10;99.90
14236;DHT22;7202;50.718;7.072;2022-10-16T08:55:31;15.20;99.90
14236;DHT22;7202;50.718;7.072;2022-10-16T08:58:01;15.20;99.90
14236;DHT22;7202;50.718;7.072;2022-10-16T09:00:31;15.20;99.90
14236;DHT22;7202;50.718;7.072;2022-10-16T09:03:10;15.30;99.90
14236;DHT22;7202;50.718;7.072;2022-10-16T09:05:52;15.40;99.90
14236;DHT22;7202;50.718;7.072;2022-10-16T09:08:31;15.50;99.90
14236;DHT22;7202;50.718;7.072;2022-10-16T09:11:08;15.60;99.90
14236;DHT22;7202;50.718;7.072;2022-10-16T09:13:48;15.70;99.90
14236;DHT22;7202;50.718;7.072;2022-10-16T09:16:24;15.80;99.90
14236;DHT22;7202;50.718;7.072;2022-10-16T09:18:58;15.90;99.90
14236;DHT22;7202;50.718;7.072;2022-10-16T09:21:30;15.90;99.90
14236;DHT22;7202;50.718;7.072;2022-10-16T09:23:59;16.00;99.90
14236;DHT22;7202;50.718;7.072;2022-10-16T09:26:33;16.00;99.90
14236;DHT22;7202;50.718;7.072;2022-10-16T09:29:02;16.10;99.90
14236;DHT22;7202;50.718;7.072;2022-10-16T09:31:36;16.20;99.90
14236;DHT22;7202;50.718;7.072;2022-10-16T09:34:05;16.20;99.90
14236;DHT22;7202;50.718;7.072;2022-10-16T09:36:39;16.30;99.90
14236;DHT22;7202;50.718;7.072;2022-10-16T09:39:10;16.40;99.90
14236;DHT22;7202;50.718;7.072;2022-10-16T09:41:41;16.40;99.90
14236;DHT22;7202;50.718;7.072;2022-10-16T09:44:19;16.50;99.90
14236;DHT22;7202;50.718;7.072;2022-10-16T09:47:01;16.60;99.90
14236;DHT22;7202;50.718;7.072;2022-10-16T09:49:29;16.70;99.90
14236;DHT22;7202;50.718;7.072;2022-10-16T09:52:05;16.80;99.90
14236;DHT22;7202;50.718;7.072;2022-10-16T09:54:34;16.90;99.90
14236;DHT22;7202;50.718;7.072;2022-10-16T09:57:06;16.90;99.90
14236;DHT22;7202;50.718;7.072;2022-10-16T09:59:46;16.90;99.90
14236;DHT22;7202;50.718;7.072;2022-10-16T10:02:17;17.00;99.90
14236;DHT22;7202;50.718;7.072;2022-10-16T10:04:50;17.20;99.90
14236;DHT22;7202;50.718;7.072;2022-10-16T10:07:24;17.30;99.90
14236;DHT22;7202;50.718;7.072;2022-10-16T10:09:56;17.30;99.90
14236;DHT22;7202;50.718;7.072;2022-10-16T10:12:26;17.30;99.90
14236;DHT22;7202;50.718;7.072;2022-10-16T10:14:58;17.40;99.90
14236;DHT22;7202;50.718;7.072;2022-10-16T10:17:33;17.40;99.90
14236;DHT22;7202;50.718;7.072;2022-10-16T10:20:21;17.50;99.90
14236;DHT22;7202;50.718;7.072;2022-10-16T10:22:50;17.50;99.90
14236;DHT22;7202;50.718;7.072;2022-10-16T10:25:25;17.50;99.90
14236;DHT22;7202;50.718;7.072;2022-10-16T10:30:57;17.80;99.90
14236;DHT22;7202;50.718;7.072;2022-10-16T10:33:35;17.80;99.90
14236;DHT22;7202;50.718;7.072;2022-10-16T10:36:21;17.80;99.90
14236;DHT22;7202;50.718;7.072;2022-10-16T10:38:54;17.90;99.90
14236;DHT22;7202;50.718;7.072;2022-10-16T10:41:45;17.90;99.90
14236;DHT22;7202;50.718;7.072;2022-10-16T10:44:30;18.00;99.90
14236;DHT22;7202;50.718;7.072;2022-10-16T10:47:09;18.10;99.90
14236;DHT22;7202;50.718;7.072;2022-10-16T10:49:53;18.20;99.90
14236;DHT22;7202;50.718;7.072;2022-10-16T10:52:41;18.30;99.90
14236;DHT22;7202;50.718;7.072;2022-10-16T10:55:18;18.40;99.90
14236;DHT22;7202;50.718;7.072;2022-10-16T10:58:06;18.40;99.90
14236;DHT22;7202;50.718;7.072;2022-10-16T11:00:45;18.40;99.90
14236;DHT22;7202;50.718;7.072;2022-10-16T11:03:25;18.40;99.90
14236;DHT22;7202;50.718;7.072;2022-10-16T11:05:59;18.50;99.90
14236;DHT22;7202;50.718;7.072;2022-10-16T11:08:32;18.50;99.90
14236;DHT22;7202;50.718;7.072;2022-10-16T11:11:04;18.50;99.90
14236;DHT22;7202;50.718;7.072;2022-10-16T11:13:38;18.60;99.90
14236;DHT22;7202;50.718;7.072;2022-10-16T11:16:13;18.70;99.90
14236;DHT22;7202;50.718;7.072;2022-10-16T11:18:54;18.70;99.90
14236;DHT22;7202;50.718;7.072;2022-10-16T11:21:28;18.70;99.90
14236;DHT22;7202;50.718;7.072;2022-10-16T11:24:01;18.70;99.90
14236;DHT22;7202;50.718;7.072;2022-10-16T11:26:34;18.70;99.90
14236;DHT22;7202;50.718;7.072;2022-10-16T11:29:14;18.70;99.90
14236;DHT22;7202;50.718;7.072;2022-10-16T11:31:49;18.60;99.90
14236;DHT22;7202;50.718;7.072;2022-10-16T11:34:23;18.60;99.90
14236;DHT22;7202;50.718;7.072;2022-10-16T11:36:58;18.60;99.90
14236;DHT22;7202;50.718;7.072;2022-10-16T11:39:30;18.70;99.90
14236;DHT22;7202;50.718;7.072;2022-10-16T11:42:02;18.70;99.90
14236;DHT22;7202;50.718;7.072;2022-10-16T11:44:42;18.70;99.90
14236;DHT22;7202;50.718;7.072;2022-10-16T11:47:23;18.60;99.90
14236;DHT22;7202;50.718;7.072;2022-10-16T11:50:20;18.60;99.90
14236;DHT22;7202;50.718;7.072;2022-10-16T11:52:57;18.60;99.90
14236;DHT22;7202;50.718;7.072;2022-10-16T11:55:30;18.60;99.90
14236;DHT22;7202;50.718;7.072;2022-10-16T11:58:03;18.60;99.90
14236;DHT22;7202;50.718;7.072;2022-10-16T12:00:38;18.50;99.90
14236;DHT22;7202;50.718;7.072;2022-10-16T12:03:17;18.50;99.90
14236;DHT22;7202;50.718;7.072;2022-10-16T12:06:02;18.50;99.90
14236;DHT22;7202;50.718;7.072;2022-10-16T12:08:35;18.60;99.90
14236;DHT22;7202;50.718;7.072;2022-10-16T12:11:09;18.60;99.90
14236;DHT22;7202;50.718;7.072;2022-10-16T12:13:40;18.60;99.90
14236;DHT22;7202;50.718;7.072;2022-10-16T12:16:23;18.70;99.90
14236;DHT22;7202;50.718;7.072;2022-10-16T12:19:09;18.60;99.90
14236;DHT22;7202;50.718;7.072;2022-10-16T12:21:38;18.60;99.90
14236;DHT22;7202;50.718;7.072;2022-10-16T12:24:21;18.70;99.90
14236;DHT22;7202;50.718;7.072;2022-10-16T12:26:51;18.70;99.90
14236;DHT22;7202;50.718;7.072;2022-10-16T12:29:26;18.70;99.90
14236;DHT22;7202;50.718;7.072;2022-10-16T12:31:57;18.80;99.90
14236;DHT22;7202;50.718;7.072;2022-10-16T12:34:28;18.80;99.90
14236;DHT22;7202;50.718;7.072;2022-10-16T12:37:13;18.80;99.90
14236;DHT22;7202;50.718;7.072;2022-10-16T12:39:43;18.80;99.90
14236;DHT22;7202;50.718;7.072;2022-10-16T12:42:33;18.90;99.90
14236;DHT22;7202;50.718;7.072;2022-10-16T12:45:22;18.80;99.90
14236;DHT22;7202;50.718;7.072;2022-10-16T12:47:53;18.80;99.90
14236;DHT22;7202;50.718;7.072;2022-10-16T12:50:32;18.80;99.90
14236;DHT22;7202;50.718;7.072;2022-10-16T12:53:02;18.90;99.90
14236;DHT22;7202;50.718;7.072;2022-10-16T12:55:44;19.00;99.90
14236;DHT22;7202;50.718;7.072;2022-10-16T12:58:24;19.10;99.90
14236;DHT22;7202;50.718;7.072;2022-10-16T13:00:59;19.10;99.90
14236;DHT22;7202;50.718;7.072;2022-10-16T13:03:48;19.20;99.90
14236;DHT22;7202;50.718;7.072;2022-10-16T13:06:30;19.20;99.90
14236;DHT22;7202;50.718;7.072;2022-10-16T13:12:27;19.20;99.90
14236;DHT22;7202;50.718;7.072;2022-10-16T13:15:10;19.20;99.90
14236;DHT22;7202;50.718;7.072;2022-10-16T13:17:52;19.20;99.90
14236;DHT22;7202;50.718;7.072;2022-10-16T13:20:30;19.20;99.90
14236;DHT22;7202;50.718;7.072;2022-10-16T13:23:08;19.10;99.90
14236;DHT22;7202;50.718;7.072;2022-10-16T13:25:59;19.20;99.90
14236;DHT22;7202;50.718;7.072;2022-10-16T13:28:34;19.10;99.90
14236;DHT22;7202;50.718;7.072;2022-10-16T13:31:05;19.10;99.90
14236;DHT22;7202;50.718;7.072;2022-10-16T13:33:35;19.20;99.90
14236;DHT22;7202;50.718;7.072;2022-10-16T13:36:05;19.10;99.90
14236;DHT22;7202;50.718;7.072;2022-10-16T13:38:35;19.10;99.90
14236;DHT22;7202;50.718;7.072;2022-10-16T13:41:06;19.20;99.90
14236;DHT22;7202;50.718;7.072;2022-10-16T13:43:45;19.20;99.90
14236;DHT22;7202;50.718;7.072;2022-10-16T13:46:16;19.20;99.90
14236;DHT22;7202;50.718;7.072;2022-10-16T13:48:56;19.10;99.90
14236;DHT22;7202;50.718;7.072;2022-10-16T13:51:25;19.20;99.90
14236;DHT22;7202;50.718;7.072;2022-10-16T13:53:56;19.20;99.90
14236;DHT22;7202;50.718;7.072;2022-10-16T13:56:26;19.20;99.90
14236;DHT22;7202;50.718;7.072;2022-10-16T13:59:01;19.30;99.90
14236;DHT22;7202;50.718;7.072;2022-10-16T14:01:32;19.40;99.90
14236;DHT22;7202;50.718;7.072;2022-10-16T14:04:04;19.40;99.90
14236;DHT22;7202;50.718;7.072;2022-10-16T14:06:35;19.50;99.90
14236;DHT22;7202;50.718;7.072;2022-10-16T14:09:06;19.50;99.90
14236;DHT22;7202;50.718;7.072;2022-10-16T14:11:44;19.50;99.90
14236;DHT22;7202;50.718;7.072;2022-10-16T14:14:15;19.40;99.90
14236;DHT22;7202;50.718;7.072;2022-10-16T14:16:44;19.50;99.90
14236;DHT22;7202;50.718;7.072;2022-10-16T14:19:19;19.40;99.90
14236;DHT22;7202;50.718;7.072;2022-10-16T14:21:50;19.40;99.90
14236;DHT22;7202;50.718;7.072;2022-10-16T14:24:26;19.40;99.90
14236;DHT22;7202;50.718;7.072;2022-10-16T14:26:55;19.40;99.90
14236;DHT22;7202;50.718;7.072;2022-10-16T14:29:27;19.30;99.90
14236;DHT22;7202;50.718;7.072;2022-10-16T14:31:59;19.30;99.90
14236;DHT22;7202;50.718;7.072;2022-10-16T14:34:30;19.30;99.90
14236;DHT22;7202;50.718;7.072;2022-10-16T14:37:02;19.30;99.90
14236;DHT22;7202;50.718;7.072;2022-10-16T14:39:39;19.30;99.90
14236;DHT22;7202;50.718;7.072;2022-10-16T14:42:14;19.30;99.90
14236;DHT22;7202;50.718;7.072;2022-10-16T14:44:47;19.30;99.90
14236;DHT22;7202;50.718;7.072;2022-10-16T14:47:18;19.30;99.90
14236;DHT22;7202;50.718;7.072;2022-10-16T14:49:49;19.30;99.90
14236;DHT22;7202;50.718;7.072;2022-10-16T14:52:18;19.20;99.90
14236;DHT22;7202;50.718;7.072;2022-10-16T14:54:48;19.20;99.90
14236;DHT22;7202;50.718;7.072;2022-10-16T14:57:19;19.20;99.90
14236;DHT22;7202;50.718;7.072;2022-10-16T14:59:50;19.10;99.90
14236;DHT22;7202;50.718;7.072;2022-10-16T15:02:25;19.10;99.90
14236;DHT22;7202;50.718;7.072;2022-10-16T15:04:56;19.10;99.90
14236;DHT22;7202;50.718;7.072;2022-10-16T15:07:25;19.10;99.90
14236;DHT22;7202;50.718;7.072;2022-10-16T15:09:54;19.00;99.90
14236;DHT22;7202;50.718;7.072;2022-10-16T15:12:24;19.00;99.90
14236;DHT22;7202;50.718;7.072;2022-10-16T15:14:54;18.90;99.90
14236;DHT22;7202;50.718;7.072;2022-10-16T15:17:23;18.90;99.90
14236;DHT22;7202;50.718;7.072;2022-10-16T15:19:52;18.90;99.90
14236;DHT22;7202;50.718;7.072;2022-10-16T15:22:21;18.80;99.90
14236;DHT22;7202;50.718;7.072;2022-10-16T15:24:50;18.80;99.90
14236;DHT22;7202;50.718;7.072;2022-10-16T15:27:19;18.70;99.90
14236;DHT22;7202;50.718;7.072;2022-10-16T15:29:47;18.70;99.90
14236;DHT22;7202;50.718;7.072;2022-10-16T15:32:17;18.70;99.90
14236;DHT22;7202;50.718;7.072;2022-10-16T15:34:46;18.60;99.90
14236;DHT22;7202;50.718;7.072;2022-10-16T15:37:14;18.60;99.90
14236;DHT22;7202;50.718;7.072;2022-10-16T15:39:43;18.60;99.90
14236;DHT22;7202;50.718;7.072;2022-10-16T15:42:11;18.50;99.90
14236;DHT22;7202;50.718;7.072;2022-10-16T15:44:40;18.50;99.90
14236;DHT22;7202;50.718;7.072;2022-10-16T15:47:09;18.40;99.90
14236;DHT22;7202;50.718;7.072;2022-10-16T15:49:39;18.40;99.90
14236;DHT22;7202;50.718;7.072;2022-10-16T15:52:08;18.40;99.90
14236;DHT22;7202;50.718;7.072;2022-10-16T15:54:37;18.30;99.90
14236;DHT22;7202;50.718;7.072;2022-10-16T15:57:05;18.30;99.90
14236;DHT22;7202;50.718;7.072;2022-10-16T15:59:34;18.20;99.90
14236;DHT22;7202;50.718;7.072;2022-10-16T16:02:03;18.20;99.90
14236;DHT22;7202;50.718;7.072;2022-10-16T16:04:31;18.20;99.90
14236;DHT22;7202;50.718;7.072;2022-10-16T16:07:17;18.10;99.90
14236;DHT22;7202;50.718;7.072;2022-10-16T16:09:45;18.10;99.90
14236;DHT22;7202;50.718;7.072;2022-10-16T16:12:14;18.10;99.90
14236;DHT22;7202;50.718;7.072;2022-10-16T16:14:42;18.10;99.90
14236;DHT22;7202;50.718;7.072;2022-10-16T16:17:13;18.00;99.90
14236;DHT22;7202;50.718;7.072;2022-10-16T16:19:41;18.00;99.90
14236;DHT22;7202;50.718;7.072;2022-10-16T16:22:10;18.00;99.90
14236;DHT22;7202;50.718;7.072;2022-10-16T16:24:41;18.00;99.90